createdAt,value
2019-04-23T00:00:20.460Z,14.60
2019-04-23T00:02:54.933Z,14.60
2019-04-23T00:05:35.457Z,14.50
2019-04-23T00:08:04.570Z,14.50
2019-04-23T00:10:26.168Z,14.50
2019-04-23T00:15:26.863Z,14.40
2019-04-23T00:17:47.839Z,14.30
2019-04-23T00:20:20.477Z,14.30
2019-04-23T00:23:02.009Z,14.20
2019-04-23T00:26:12.913Z,14.20
2019-04-23T00:28:45.551Z,14.10
2019-04-23T00:30:55.233Z,14.10
2019-04-23T00:33:25.058Z,14.10
2019-04-23T00:35:50.140Z,14.00
2019-04-23T00:38:26.498Z,14.00
2019-04-23T00:40:51.386Z,14.00
2019-04-23T00:43:22.895Z,14.00
2019-04-23T00:48:29.384Z,13.90
2019-04-23T00:50:52.197Z,13.90
2019-04-23T00:53:18.840Z,13.80
2019-04-23T00:55:53.615Z,13.80
2019-04-23T00:58:23.662Z,13.80
2019-04-23T01:00:52.803Z,13.80
2019-04-23T01:03:20.442Z,13.80
2019-04-23T01:06:00.604Z,13.70
2019-04-23T01:08:18.843Z,13.70
2019-04-23T01:11:03.216Z,13.60
2019-04-23T01:13:39.342Z,13.60
2019-04-23T01:16:05.752Z,13.60
2019-04-23T01:18:50.611Z,13.50
2019-04-23T01:20:54.068Z,13.50
2019-04-23T01:23:44.411Z,13.50
2019-04-23T01:26:26.418Z,13.50
2019-04-23T01:29:03.027Z,13.50
2019-04-23T01:31:47.968Z,13.50
2019-04-23T01:33:56.159Z,13.40
2019-04-23T01:36:25.264Z,13.40
2019-04-23T01:39:01.786Z,13.40
2019-04-23T01:41:28.372Z,13.40
2019-04-23T01:43:50.319Z,13.40
2019-04-23T01:46:29.178Z,13.40
2019-04-23T01:49:00.206Z,13.30
2019-04-23T01:51:26.479Z,13.30
2019-04-23T01:53:56.902Z,13.30
2019-04-23T01:56:24.662Z,13.40
2019-04-23T02:01:25.776Z,13.30
2019-04-23T02:03:58.256Z,13.30
2019-04-23T02:06:19.880Z,13.30
2019-04-23T02:08:56.875Z,13.30
2019-04-23T02:11:20.176Z,13.30
2019-04-23T02:13:48.798Z,13.30
2019-04-23T02:16:21.424Z,13.30
2019-04-23T02:18:47.796Z,13.30
2019-04-23T02:21:16.849Z,13.20
2019-04-23T02:23:59.190Z,13.20
2019-04-23T02:26:35.637Z,13.10
2019-04-23T02:29:13.276Z,13.10
2019-04-23T02:34:23.573Z,13.10
2019-04-23T02:36:39.869Z,13.00
2019-04-23T02:39:22.684Z,13.00
2019-04-23T02:41:41.369Z,13.00
2019-04-23T02:44:11.063Z,13.00
2019-04-23T02:46:31.725Z,12.90
2019-04-23T02:49:11.184Z,12.90
2019-04-23T02:56:37.955Z,12.90
2019-04-23T03:06:32.179Z,12.80
2019-04-23T03:08:49.185Z,12.70
2019-04-23T03:16:45.939Z,12.70
2019-04-23T03:22:09.585Z,12.70
2019-04-23T03:25:12.600Z,12.60
2019-04-23T03:30:09.102Z,12.60
2019-04-23T03:40:03.973Z,12.60
2019-04-23T03:42:37.232Z,12.50
2019-04-23T03:50:30.058Z,12.50
2019-04-23T03:54:49.199Z,12.50
2019-04-23T04:04:52.834Z,12.50
2019-04-23T04:13:22.814Z,12.50
2019-04-23T04:15:00.893Z,12.40
2019-04-23T04:17:20.138Z,12.40
2019-04-23T04:19:47.634Z,12.40
2019-04-23T04:22:29.277Z,12.30
2019-04-23T04:25:10.077Z,12.30
2019-04-23T04:27:27.081Z,12.30
2019-04-23T04:29:52.214Z,12.30
2019-04-23T04:32:12.033Z,12.30
2019-04-23T04:37:36.199Z,12.30
2019-04-23T04:42:10.446Z,12.30
2019-04-23T04:47:09.952Z,12.30
2019-04-23T04:52:22.245Z,12.40
2019-04-23T04:54:24.115Z,12.40
2019-04-23T04:57:12.978Z,12.40
2019-04-23T05:02:16.213Z,12.40
2019-04-23T05:04:42.537Z,12.40
2019-04-23T05:09:43.974Z,12.50
2019-04-23T05:14:33.419Z,12.60
2019-04-23T05:17:02.990Z,12.70
2019-04-23T05:19:40.785Z,12.60
2019-04-23T05:22:16.626Z,12.70
2019-04-23T05:24:30.382Z,12.80
2019-04-23T05:27:01.071Z,12.80
2019-04-23T05:29:19.967Z,12.80
2019-04-23T05:31:53.416Z,12.90
2019-04-23T05:34:20.587Z,12.90
2019-04-23T05:36:53.460Z,13.00
2019-04-23T05:42:06.632Z,13.10
2019-04-23T05:44:38.284Z,13.10
2019-04-23T05:46:52.202Z,13.20
2019-04-23T05:49:18.670Z,13.10
2019-04-23T05:54:19.103Z,13.10
2019-04-23T05:56:46.871Z,13.10
2019-04-23T05:59:17.687Z,13.20
2019-04-23T06:01:53.995Z,13.30
2019-04-23T06:04:22.013Z,13.40
2019-04-23T06:09:14.176Z,13.50
2019-04-23T06:14:20.397Z,13.60
2019-04-23T06:16:55.249Z,13.70
2019-04-23T06:19:15.785Z,13.80
2019-04-23T06:21:50.937Z,13.90
2019-04-23T06:24:16.569Z,14.10
2019-04-23T06:26:51.741Z,14.30
2019-04-23T06:29:15.828Z,14.30
2019-04-23T06:31:41.502Z,14.40
2019-04-23T06:34:12.512Z,14.50
2019-04-23T06:39:00.217Z,14.70
2019-04-23T06:41:37.536Z,14.70
2019-04-23T06:44:14.437Z,14.90
2019-04-23T06:46:46.007Z,15.00
2019-04-23T06:49:09.303Z,15.00
2019-04-23T06:54:03.338Z,15.20
2019-04-23T06:59:07.690Z,15.50
2019-04-23T07:01:37.753Z,15.50
2019-04-23T07:04:06.776Z,15.50
2019-04-23T07:06:30.134Z,15.50
2019-04-23T07:09:07.811Z,15.60
2019-04-23T07:11:40.403Z,15.60
2019-04-23T07:13:57.752Z,15.70
2019-04-23T07:16:27.828Z,15.70
2019-04-23T07:18:54.520Z,15.80
2019-04-23T07:21:23.568Z,15.90
2019-04-23T07:24:00.866Z,15.90
2019-04-23T07:28:53.160Z,16.00
2019-04-23T07:33:57.885Z,16.20
2019-04-23T07:36:22.823Z,16.40
2019-04-23T07:39:17.587Z,16.50
2019-04-23T07:42:03.525Z,16.50
2019-04-23T07:49:58.992Z,16.80
2019-04-23T07:52:18.015Z,16.90
2019-04-23T07:54:44.205Z,17.10
2019-04-23T07:57:18.706Z,17.30
2019-04-23T07:59:48.743Z,17.40
2019-04-23T08:04:56.217Z,17.40
2019-04-23T08:07:16.228Z,17.60
2019-04-23T08:09:48.142Z,17.80
2019-04-23T08:12:17.355Z,18.00
2019-04-23T08:14:42.696Z,18.00
2019-04-23T08:17:08.249Z,18.20
2019-04-23T08:19:42.605Z,18.40
2019-04-23T08:22:12.467Z,18.50
2019-04-23T08:24:50.600Z,18.70
2019-04-23T08:27:23.643Z,18.90
2019-04-23T08:29:50.903Z,19.20
2019-04-23T08:32:19.007Z,19.30
2019-04-23T08:34:58.609Z,19.40
2019-04-23T08:37:26.992Z,19.50
2019-04-23T08:39:46.386Z,19.70
2019-04-23T08:45:09.426Z,20.10
2019-04-23T08:47:29.705Z,20.00
2019-04-23T08:50:02.266Z,20.00
2019-04-23T08:52:43.125Z,19.90
2019-04-23T08:57:26.944Z,20.00
2019-04-23T08:59:55.666Z,20.10
2019-04-23T09:05:00.497Z,20.40
2019-04-23T09:07:28.132Z,20.50
2019-04-23T09:09:57.835Z,20.50
2019-04-23T09:12:33.091Z,20.20
2019-04-23T09:14:52.345Z,19.80
2019-04-23T09:20:06.518Z,20.00
2019-04-23T09:22:34.488Z,20.40
2019-04-23T09:27:22.578Z,20.90
2019-04-23T09:29:52.921Z,20.90
2019-04-23T09:32:26.553Z,20.70
2019-04-23T09:35:20.707Z,20.90
2019-04-23T09:38:10.219Z,21.10
2019-04-23T09:48:51.231Z,26.10
2019-04-23T09:51:17.265Z,27.10
2019-04-23T09:53:51.324Z,27.80
2019-04-23T09:56:14.608Z,28.80
2019-04-23T09:58:41.999Z,28.80
2019-04-23T10:01:26.554Z,28.60
2019-04-23T10:03:41.682Z,28.40
2019-04-23T10:06:05.963Z,28.20
2019-04-23T10:08:35.604Z,28.90
2019-04-23T10:10:59.759Z,29.20
2019-04-23T10:13:27.303Z,29.60
2019-04-23T10:15:55.552Z,29.90
2019-04-23T10:18:24.397Z,30.40
2019-04-23T10:20:52.408Z,30.30
2019-04-23T10:23:21.266Z,31.00
2019-04-23T10:25:49.910Z,31.40
2019-04-23T10:28:24.710Z,31.80
2019-04-23T10:30:54.454Z,32.00
2019-04-23T10:33:23.424Z,31.50
2019-04-23T10:35:58.125Z,30.60
2019-04-23T10:38:22.067Z,30.30
2019-04-23T10:40:50.166Z,30.00
2019-04-23T10:43:18.173Z,30.50
2019-04-23T10:46:31.143Z,31.00
2019-04-23T10:49:43.519Z,31.40
2019-04-23T10:52:02.593Z,31.00
2019-04-23T10:56:59.751Z,31.90
2019-04-23T10:59:35.468Z,32.00
2019-04-23T11:02:26.625Z,32.00
2019-04-23T11:04:47.534Z,32.00
2019-04-23T11:12:28.827Z,30.30
2019-04-23T11:14:58.333Z,29.00
2019-04-23T11:17:15.001Z,28.20
2019-04-23T11:22:34.359Z,26.70
2019-04-23T11:24:41.494Z,26.30
2019-04-23T11:27:17.853Z,25.80
2019-04-23T11:32:19.386Z,25.00
2019-04-23T11:34:56.731Z,24.10
2019-04-23T11:39:39.769Z,23.40
2019-04-23T11:42:23.435Z,23.20
2019-04-23T11:49:53.361Z,22.90
2019-04-23T11:52:12.772Z,22.60
2019-04-23T11:54:34.020Z,22.50
2019-04-23T11:57:24.481Z,22.20
2019-04-23T11:59:39.264Z,22.10
2019-04-23T12:02:07.505Z,21.80
2019-04-23T12:04:57.595Z,21.80
2019-04-23T12:07:41.356Z,21.70
2019-04-23T12:10:47.932Z,21.70
2019-04-23T12:13:15.402Z,21.90
2019-04-23T12:18:25.568Z,22.30
2019-04-23T12:20:37.692Z,22.40
2019-04-23T12:25:36.731Z,22.40
2019-04-23T12:28:06.566Z,22.40
2019-04-23T12:30:42.059Z,22.30
2019-04-23T12:33:03.347Z,22.20
2019-04-23T12:35:27.587Z,22.00
2019-04-23T12:40:40.418Z,22.10
2019-04-23T12:43:13.346Z,22.20
2019-04-23T12:53:10.591Z,22.40
2019-04-23T13:00:47.824Z,22.30
2019-04-23T13:03:02.787Z,22.20
2019-04-23T13:08:10.760Z,22.40
2019-04-23T13:13:16.705Z,22.60
2019-04-23T13:15:34.614Z,22.60
2019-04-23T13:18:03.863Z,22.50
2019-04-23T13:20:32.174Z,22.40
2019-04-23T13:28:23.232Z,22.10
2019-04-23T13:33:30.742Z,22.20
2019-04-23T13:40:55.726Z,22.60
2019-04-23T13:43:19.219Z,22.50
2019-04-23T13:48:17.986Z,22.60
2019-04-23T13:50:51.701Z,22.70
2019-04-23T13:53:32.024Z,23.00
2019-04-23T13:55:42.048Z,22.90
2019-04-23T14:11:19.753Z,23.10
2019-04-23T14:18:55.960Z,22.70
2019-04-23T14:21:11.222Z,22.70
2019-04-23T14:23:59.684Z,22.60
2019-04-23T14:26:20.781Z,22.80
2019-04-23T14:31:04.785Z,23.20
2019-04-23T14:41:09.571Z,23.30
2019-04-23T14:43:38.746Z,23.20
2019-04-23T14:48:46.584Z,23.20
2019-04-23T14:51:26.372Z,23.00
2019-04-23T14:53:39.685Z,22.80
2019-04-23T14:56:13.202Z,22.80
2019-04-23T14:58:42.783Z,22.70
2019-04-23T15:01:25.268Z,22.70
2019-04-23T15:03:44.541Z,22.50
2019-04-23T15:08:42.499Z,22.50
2019-04-23T15:13:41.308Z,22.70
2019-04-23T15:16:07.791Z,22.60
2019-04-23T15:19:02.977Z,22.50
2019-04-23T15:21:37.653Z,22.40
2019-04-23T15:27:04.891Z,22.30
2019-04-23T15:28:17.757Z,22.40
2019-04-23T15:31:24.728Z,22.40
2019-04-23T15:33:50.788Z,22.50
2019-04-23T15:41:15.167Z,22.60
2019-04-23T15:43:46.847Z,22.70
2019-04-23T15:46:11.699Z,22.80
2019-04-23T15:48:42.471Z,22.70
2019-04-23T15:51:11.830Z,22.60
2019-04-23T15:53:31.029Z,22.60
2019-04-23T15:56:12.085Z,22.60
2019-04-23T16:01:21.861Z,22.50
2019-04-23T16:03:19.728Z,22.50
2019-04-23T16:05:46.719Z,22.50
2019-04-23T16:08:52.945Z,22.50
2019-04-23T16:11:26.472Z,22.40
2019-04-23T16:13:53.971Z,22.30
2019-04-23T16:16:18.380Z,22.30
2019-04-23T16:21:37.002Z,22.20
2019-04-23T16:24:01.450Z,22.20
2019-04-23T16:26:29.830Z,22.30
2019-04-23T16:29:23.386Z,22.30
2019-04-23T16:31:27.634Z,22.30
2019-04-23T16:34:29.108Z,22.40
2019-04-23T16:36:48.527Z,22.40
2019-04-23T16:41:52.173Z,22.50
2019-04-23T16:44:21.660Z,22.40
2019-04-23T16:46:50.364Z,22.30
2019-04-23T16:51:38.809Z,22.20
2019-04-23T16:54:21.019Z,22.30
2019-04-23T16:56:56.068Z,22.20
2019-04-23T16:59:13.608Z,22.20
2019-04-23T17:01:34.458Z,22.20
2019-04-23T17:06:36.331Z,22.10
2019-04-23T17:11:33.982Z,22.00
2019-04-23T17:14:10.144Z,21.90
2019-04-23T17:19:10.360Z,21.70
2019-04-23T17:21:31.347Z,21.60
2019-04-23T17:24:15.087Z,21.50
2019-04-23T17:26:29.364Z,21.40
2019-04-23T17:31:35.135Z,21.40
2019-04-23T17:37:03.284Z,21.30
2019-04-23T17:39:27.780Z,21.20
2019-04-23T17:47:24.569Z,21.10
2019-04-23T17:49:55.617Z,21.00
2019-04-23T17:52:24.175Z,20.90
2019-04-23T17:54:51.557Z,20.90
2019-04-23T17:57:19.079Z,20.90
2019-04-23T18:00:08.399Z,20.80
2019-04-23T18:02:48.264Z,20.80
2019-04-23T18:04:56.870Z,20.70
2019-04-23T18:07:31.931Z,20.70
2019-04-23T18:09:52.041Z,20.60
2019-04-23T18:12:22.517Z,20.60
2019-04-23T18:14:40.659Z,20.50
2019-04-23T18:17:17.838Z,20.50
2019-04-23T18:19:58.464Z,20.50
2019-04-23T18:22:30.607Z,20.40
2019-04-23T18:25:17.112Z,20.30
2019-04-23T18:27:46.655Z,20.30
2019-04-23T18:30:23.838Z,20.30
2019-04-23T18:35:29.640Z,20.20
2019-04-23T18:38:05.429Z,20.10
2019-04-23T18:40:38.823Z,20.00
2019-04-23T18:48:37.374Z,19.90
2019-04-23T18:50:55.387Z,19.90
2019-04-23T18:53:27.537Z,19.80
2019-04-23T18:56:05.631Z,19.80
2019-04-23T18:58:21.965Z,19.80
2019-04-23T19:01:00.123Z,19.80
2019-04-23T19:03:37.312Z,19.70
2019-04-23T19:06:23.782Z,19.80
2019-04-23T19:11:44.343Z,19.70
2019-04-23T19:14:03.260Z,19.60
2019-04-23T19:16:31.413Z,19.60
2019-04-23T19:21:47.359Z,19.50
2019-04-23T19:24:00.934Z,19.40
2019-04-23T19:26:48.670Z,19.40
2019-04-23T19:28:56.114Z,19.30
2019-04-23T19:31:42.701Z,19.30
2019-04-23T19:34:17.889Z,19.30
2019-04-23T19:36:40.185Z,19.20
2019-04-23T19:39:11.878Z,19.20
2019-04-23T19:41:47.560Z,19.20
2019-04-23T19:44:01.343Z,19.10
2019-04-23T19:49:05.728Z,19.10
2019-04-23T19:51:35.783Z,19.10
2019-04-23T19:54:09.534Z,19.10
2019-04-23T19:56:43.430Z,19.10
2019-04-23T19:58:56.267Z,19.00
2019-04-23T20:03:56.073Z,19.00
2019-04-23T20:06:56.492Z,19.00
2019-04-23T20:09:17.686Z,19.00
2019-04-23T20:11:28.950Z,19.00
2019-04-23T20:16:29.925Z,18.90
2019-04-23T20:24:04.671Z,18.90
2019-04-23T20:26:17.206Z,18.80
2019-04-23T20:29:19.285Z,18.80
2019-04-23T20:31:59.037Z,18.90
2019-04-23T20:34:40.178Z,18.70
2019-04-23T20:44:35.889Z,18.60
2019-04-23T20:47:04.841Z,18.60
2019-04-23T20:49:31.809Z,18.60
2019-04-23T20:52:00.655Z,18.50
2019-04-23T20:54:22.689Z,18.50
2019-04-23T20:57:19.312Z,18.40
2019-04-23T20:59:45.554Z,18.40
2019-04-23T21:02:13.667Z,18.40
2019-04-23T21:04:51.150Z,18.30
2019-04-23T21:07:17.630Z,18.20
2019-04-23T21:09:51.189Z,18.20
2019-04-23T21:12:16.168Z,18.20
2019-04-23T21:15:03.277Z,18.10
2019-04-23T21:17:04.174Z,18.10
2019-04-23T21:19:50.783Z,18.10
2019-04-23T21:22:13.406Z,18.00
2019-04-23T21:24:39.729Z,18.00
2019-04-23T21:27:43.496Z,18.00
2019-04-23T21:30:00.149Z,17.90
2019-04-23T21:32:33.200Z,17.90
2019-04-23T21:35:05.600Z,17.80
2019-04-23T21:37:50.004Z,17.80
2019-04-23T21:40:47.675Z,17.80
2019-04-23T21:43:09.399Z,17.70
2019-04-23T21:45:40.763Z,17.70
2019-04-23T21:50:49.633Z,17.60
2019-04-23T21:52:59.505Z,17.60
2019-04-23T21:55:40.821Z,17.60
2019-04-23T22:00:39.684Z,17.60
2019-04-23T22:03:07.881Z,17.60
2019-04-23T22:05:32.480Z,17.60
2019-04-23T22:08:03.210Z,17.60
2019-04-23T22:10:27.401Z,17.50
2019-04-23T22:13:13.010Z,17.50
2019-04-23T22:15:43.166Z,17.50
2019-04-23T22:17:49.624Z,17.40
2019-04-23T22:20:25.942Z,17.40
2019-04-23T22:25:25.279Z,17.40
2019-04-23T22:27:54.965Z,17.30
2019-04-23T22:30:22.758Z,17.30
2019-04-23T22:32:56.111Z,17.40
2019-04-23T22:35:20.402Z,17.30
2019-04-23T22:38:02.482Z,17.30
2019-04-23T22:43:13.201Z,17.30
2019-04-23T22:47:50.935Z,17.30
2019-04-23T22:50:14.299Z,17.20
2019-04-23T22:52:51.743Z,17.20
2019-04-23T23:03:29.264Z,17.20
2019-04-23T23:06:08.428Z,17.20
2019-04-23T23:08:13.443Z,17.20
2019-04-23T23:10:47.841Z,17.20
2019-04-23T23:13:13.717Z,17.20
2019-04-23T23:15:49.167Z,17.20
2019-04-23T23:18:13.990Z,17.10
2019-04-23T23:20:47.941Z,17.10
2019-04-23T23:23:11.488Z,17.10
2019-04-23T23:25:39.718Z,17.10
2019-04-23T23:28:12.121Z,17.10
2019-04-23T23:30:45.471Z,17.10
2019-04-23T23:33:13.288Z,17.10
2019-04-23T23:35:35.297Z,17.10
2019-04-23T23:38:09.873Z,17.00
2019-04-23T23:40:35.561Z,17.00
2019-04-23T23:43:15.756Z,17.00
2019-04-23T23:45:44.901Z,17.10
2019-04-23T23:50:50.340Z,17.00
2019-04-23T23:53:11.656Z,17.00
2019-04-23T23:55:31.938Z,17.00
2019-04-23T23:58:10.362Z,17.00
